Flight Track Log - Related Links

Times and Time Zones

All times are in EDT time to prevent confusion due to time zone crossing. See the DAL1981 flight status page for this flight to view local times or setup timezone preferences in your user account.


Time Position Orientation Groundspeed Altitude Reporting Facility
EDT Latitude Longitude Course Direction KTS MPH feet Rate Location/Type
Mon 03:50:50 PM 38.6667 -121.5833 78° East 148 170 1,100  Level Northern Cal TRACON
Mon 03:51:50 PM 38.6500 -121.5167 108° East 207 238 2,000 1,400 Climbing Northern Cal TRACON
Mon 03:52:50 PM 38.6333 -121.4333 104° East 273 314 3,900 2,350 Climbing Northern Cal TRACON
Mon 03:53:50 PM 38.6333 -121.3333 90° East 299 344 6,700 2,650 Climbing Northern Cal TRACON
Mon 03:54:50 PM 38.6500 -121.2167 80° East 296 341 9,200 1,852 Climbing Northern Cal TRACON
Mon 03:56:00 PM 38.5920 -120.7648 78° East  Level FlightAware Approximate
Mon 03:56:19 PM 38.6567 -121.0672 87° East 325 374 11,300  Level Oakland Center
Mon 03:57:21 PM 38.6678 -120.9275 84° East 384 442 12,200 1,415 Climbing Oakland Center
Mon 03:58:22 PM 38.7297 -120.8039 57° Northeast 418 481 14,200 1,820 Climbing Oakland Center
Mon 03:59:23 PM 38.8072 -120.6836 50° Northeast 433 498 15,900 1,610 Climbing Oakland Center
Mon 04:00:25 PM 38.8856 -120.5611 51° Northeast 441 507 17,500 1,561 Climbing Oakland Center
Mon 04:01:26 PM 38.9833 -120.4094 50° Northeast 456 525 19,100 1,463 Climbing Oakland Center
Mon 04:02:28 PM 39.0667 -120.2775 51° Northeast 471 542 20,500 1,317 Climbing Oakland Center
Mon 04:03:29 PM 39.1508 -120.1439 51° Northeast 480 552 21,800 1,171 Climbing Oakland Center
Mon 04:04:31 PM 39.2358 -120.0175 49° Northeast 492 566 22,900 1,073 Climbing Oakland Center
Mon 04:05:32 PM 39.3242 -119.8794 50° Northeast 498 573 24,000 934 Climbing Oakland Center
Mon 04:06:33 PM 39.4128 -119.7375 51° Northeast 504 580 24,800 780 Climbing Oakland Center
Mon 04:07:35 PM 39.5022 -119.5933 51° Northeast 511 588 25,600 878 Climbing Oakland Center
Mon 04:08:36 PM 39.6111 -119.4175 51° Northeast 517 595 26,600 976 Climbing Oakland Center
Mon 04:09:38 PM 39.7028 -119.2703 51° Northeast 519 597 27,600 1,024 Climbing Oakland Center
Mon 04:10:39 PM 39.7922 -119.1236 52° Northeast 516 594 28,700 1,024 Climbing Oakland Center
Mon 04:11:41 PM 39.8828 -118.9775 51° Northeast 515 593 29,700 878 Climbing Oakland Center
Mon 04:12:42 PM 39.9714 -118.8317 52° Northeast 511 588 30,500 829 Climbing Oakland Center
Mon 04:13:44 PM 40.0608 -118.6844 52° Northeast 513 590 31,400 829 Climbing Oakland Center
Mon 04:14:45 PM 40.1347 -118.5300 58° Northeast 501 577 32,200 689 Climbing Oakland Center
Mon 04:15:46 PM 40.1867 -118.3581 68° East 506 582 32,800 634 Climbing Oakland Center
Mon 04:16:48 PM 40.2336 -118.1842 70° East 506 582 33,500 732 Climbing Oakland Center
Mon 04:17:49 PM 40.2864 -117.9917 70° East 502 578 34,300 732 Climbing Oakland Center
Mon 04:18:51 PM 40.3303 -117.8275 71° East 499 574 35,000 341 Climbing Oakland Center
Mon 04:19:52 PM 40.3728 -117.6658 71° East 492 566 35,000  Level Oakland Center
Mon 04:20:43 PM 40.4161 -117.5025 71° East 493 567 35,000  Level Salt Lake Center
Mon 04:21:44 PM 40.4603 -117.3389 70° East 493 567 35,000  Level Salt Lake Center
Mon 04:22:46 PM 40.5042 -117.1736 71° East 496 571 35,000  Level Salt Lake Center
Mon 04:23:48 PM 40.5558 -116.9797 71° East 496 571 35,000  Level Salt Lake Center
Mon 04:24:50 PM 40.6103 -116.8178 66° East 499 574 35,000  Level Salt Lake Center
Mon 04:25:52 PM 40.6708 -116.6625 63° Northeast 495 570 35,000  Level Salt Lake Center
Mon 04:26:55 PM 40.7417 -116.4808 63° Northeast 496 571 35,000  Level Salt Lake Center
Mon 04:27:55 PM 40.8014 -116.3256 63° Northeast 497 572 35,000  Level Salt Lake Center
Mon 04:28:57 PM 40.8719 -116.1436 63° Northeast 498 573 35,000  Level Salt Lake Center
Mon 04:29:59 PM 40.9314 -115.9869 63° Northeast 497 572 35,000  Level Salt Lake Center
Mon 04:31:01 PM 40.9981 -115.8031 64° Northeast 498 573 35,000  Level Salt Lake Center
Mon 04:32:03 PM 41.0614 -115.6500 61° Northeast 496 571 35,000  Level Salt Lake Center
Mon 04:33:05 PM 41.1194 -115.4914 64° Northeast 498 573 35,000  Level Salt Lake Center
Mon 04:34:06 PM 41.1872 -115.3067 64° Northeast 498 573 35,000  Level Salt Lake Center
Mon 04:35:08 PM 41.2456 -115.1492 64° Northeast 497 572 35,000  Level Salt Lake Center
Mon 04:36:10 PM 41.3131 -114.9644 64° Northeast 497 572 35,000  Level Salt Lake Center
Mon 04:37:12 PM 41.3675 -114.8208 63° Northeast 496 571 35,000  Level Salt Lake Center
Mon 04:38:14 PM 41.4389 -114.6222 64° Northeast 496 571 35,000  Level Salt Lake Center
Mon 04:39:15 PM 41.4944 -114.4556 66° East 495 570 35,000  Level Salt Lake Center
Mon 04:40:17 PM 41.5361 -114.2814 72° East 495 570 35,000  Level Salt Lake Center
Mon 04:41:19 PM 41.5789 -114.1081 72° East 493 567 35,000  Level Salt Lake Center
Mon 04:42:21 PM 41.6217 -113.9364 72° East 490 564 35,000  Level Salt Lake Center
Mon 04:43:23 PM 41.6633 -113.7631 72° East 491 565 35,000  Level Salt Lake Center
Mon 04:44:24 PM 41.7053 -113.5886 72° East 492 566 35,000  Level Salt Lake Center
Mon 04:45:26 PM 41.7544 -113.3803 72° East 489 563 35,000  Level Salt Lake Center
Mon 04:46:28 PM 41.7956 -113.2067 72° East 489 563 35,000  Level Salt Lake Center
Mon 04:47:30 PM 41.8369 -113.0333 72° East 490 564 35,000  Level Salt Lake Center
Mon 04:48:31 PM 41.8772 -112.8597 73° East 487 560 35,000  Level Salt Lake Center
Mon 04:49:33 PM 41.9169 -112.6856 73° East 488 562 35,000  Level Salt Lake Center
Mon 04:50:35 PM 41.9569 -112.5117 73° East 487 560 35,000  Level Salt Lake Center
Mon 04:51:37 PM 41.9972 -112.3358 73° East 490 564 35,000  Level Salt Lake Center
Mon 04:52:39 PM 42.0450 -112.1258 73° East 491 565 35,000  Level Salt Lake Center
Mon 04:53:41 PM 42.0831 -111.9506 74° East 489 563 35,000  Level Salt Lake Center
Mon 04:54:42 PM 42.1228 -111.7758 73° East 488 562 35,000  Level Salt Lake Center
Mon 04:55:44 PM 42.1608 -111.6006 74° East 488 562 35,000  Level Salt Lake Center
Mon 04:56:46 PM 42.1994 -111.4261 73° East 487 560 35,000  Level Salt Lake Center
Mon 04:57:48 PM 42.2372 -111.2536 73° East 483 556 35,000  Level Salt Lake Center
Mon 04:58:50 PM 42.2747 -111.0797 74° East 482 555 35,000  Level Salt Lake Center
Mon 04:59:52 PM 42.3172 -110.8797 74° East 485 558 35,000  Level Salt Lake Center
Mon 05:00:53 PM 42.3528 -110.7122 74° East 485 558 35,000  Level Salt Lake Center
Mon 05:01:55 PM 42.3939 -110.5164 74° East 485 558 35,000  Level Salt Lake Center
Mon 05:02:57 PM 42.4281 -110.3494 74° East 482 555 35,000  Level Salt Lake Center
Mon 05:03:59 PM 42.4692 -110.1517 74° East 486 559 35,000  Level Salt Lake Center
Mon 05:05:01 PM 42.5042 -109.9831 74° East 486 559 35,000  Level Salt Lake Center
Mon 05:06:02 PM 42.5383 -109.8144 75° East 484 557 35,000  Level Salt Lake Center
Mon 05:07:04 PM 42.5781 -109.6172 75° East 485 558 35,000  Level Salt Lake Center
Mon 05:08:06 PM 42.6119 -109.4475 75° East 486 559 35,000  Level Salt Lake Center
Mon 05:09:08 PM 42.6500 -109.2489 75° East 485 558 35,000  Level Salt Lake Center
Mon 05:10:10 PM 42.6844 -109.0786 75° East 487 560 35,000  Level Salt Lake Center
Mon 05:11:11 PM 42.7231 -108.8789 75° East 488 562 35,000  Level Salt Lake Center
Mon 05:12:13 PM 42.7556 -108.7061 76° East 491 565 35,000  Level Salt Lake Center
Mon 05:13:15 PM 42.7883 -108.5344 75° East 490 564 35,000  Level Salt Lake Center
Mon 05:14:17 PM 42.8250 -108.3342 76° East 489 563 35,000 387 Level Salt Lake Center
Mon 05:15:19 PM 42.8561 -108.1617 76° East 490 564 35,800 780 Climbing Salt Lake Center
Mon 05:16:20 PM 42.8917 -107.9672 76° East 475 547 36,600 585 Climbing Salt Lake Center
Mon 05:17:22 PM 42.9222 -107.8011 76° East 472 543 37,000 194 Climbing Salt Lake Center
Mon 05:18:24 PM 42.9481 -107.6114 79° East 473 544 37,000  Level Salt Lake Center
Mon 05:19:26 PM 42.9597 -107.4372 85° East 481 554 37,000  Level Salt Lake Center
Mon 05:20:28 PM 42.9736 -107.2322 85° East 487 560 37,000  Level Salt Lake Center
Mon 05:21:29 PM 42.9853 -107.0561 85° East 489 563 37,000  Level Salt Lake Center
Mon 05:22:31 PM 42.9978 -106.8667 85° East 486 559 37,000  Level Salt Lake Center
Mon 05:23:33 PM 42.9725 -106.6628 100° East 490 564 37,000  Level Salt Lake Center
Mon 05:24:35 PM 42.9497 -106.4872 100° East 490 564 37,000  Level Salt Lake Center
Mon 05:25:37 PM 42.9208 -106.2881 101° East 481 554 37,000  Level Salt Lake Center
Mon 05:26:40 PM 42.8986 -106.1161 100° East 481 554 37,000  Level Salt Lake Center
Mon 05:27:41 PM 42.8758 -105.9442 100° East 482 555 37,000  Level Salt Lake Center
Mon 05:28:51 PM 42.8461 -105.7128 100° East 484 557 37,000  Level Denver Center
Mon 05:29:53 PM 42.8400 -105.5367 93° East 484 557 37,000  Level Denver Center
Mon 05:30:55 PM 42.8519 -105.3339 85° East 480 552 37,000  Level Denver Center
Mon 05:31:57 PM 42.8664 -105.1608 83° East 479 551 37,000  Level Denver Center
Mon 05:32:59 PM 42.8986 -104.9961 75° East 468 539 37,000  Level Denver Center
Mon 05:34:00 PM 42.9378 -104.8058 74° East 464 534 37,000  Level Denver Center
Mon 05:35:02 PM 42.9719 -104.6403 74° East 466 536 37,000  Level Denver Center
Mon 05:36:04 PM 43.0117 -104.4406 75° East 479 551 37,000  Level Denver Center
Mon 05:37:06 PM 43.0461 -104.2689 75° East 484 557 37,000  Level Denver Center
Mon 05:38:08 PM 43.0847 -104.0694 75° East 485 558 37,000  Level Denver Center
Mon 05:39:10 PM 43.1192 -103.9003 74° East 483 556 37,000  Level Denver Center
Mon 05:40:12 PM 43.1519 -103.7308 75° East 481 554 37,000  Level Denver Center
Mon 05:41:14 PM 43.1903 -103.5306 75° East 486 559 37,000  Level Denver Center
Mon 05:42:16 PM 43.2244 -103.3581 75° East 489 563 37,000  Level Denver Center
Mon 05:43:18 PM 43.2606 -103.1553 76° East 490 564 37,000  Level Denver Center
Mon 05:44:20 PM 43.2953 -102.9806 75° East 495 570 37,000  Level Denver Center
Mon 05:45:22 PM 43.3325 -102.7758 76° East 495 570 37,000  Level Denver Center
Mon 05:46:36 PM 43.3703 -102.5725 76° East 493 567 37,000  Level Denver Center
Mon 05:47:38 PM 43.4069 -102.3661 76° East 498 573 37,000  Level Denver Center
Mon 05:48:40 PM 43.4453 -102.1911 73° East 500 575 37,000  Level Denver Center
Mon 05:49:42 PM 43.4983 -102.0089 68° East 497 572 37,000 48 Level Denver Center
Mon 05:50:44 PM 43.5497 -101.8336 68° East 495 570 37,100  Climbing Denver Center
Mon 05:51:46 PM 43.6008 -101.6611 68° East 489 563 37,000 -49 Descending Denver Center
Mon 05:52:47 PM 43.6464 -101.4903 70° East 477 549 37,000  Level Denver Center
Mon 05:53:10 PM 43.6628 -101.4214 72° East 480 552 37,000  Level Minneapolis Center
Mon 05:53:50 PM 43.6881 -101.2778 76° East 479 551 37,000  Level Denver Center
Mon 05:54:52 PM 43.7169 -101.0953 78° East 487 560 37,000  Level Denver Center
Mon 05:55:54 PM 43.7439 -100.9081 79° East 496 571 37,000  Level Denver Center
Mon 05:56:15 PM 43.7567 -100.8361 76° East 494 568 37,000  Level Minneapolis Center
Mon 05:57:16 PM 43.7847 -100.6442 78° East 504 580 37,000  Level Minneapolis Center
Mon 05:57:58 PM 43.8022 -100.5281 78° East 508 585 37,000  Level Denver Center
Mon 05:58:18 PM 43.8133 -100.4525 78° East 509 586 37,000  Level Minneapolis Center
Mon 05:59:20 PM 43.8422 -100.2600 78° East 512 589 37,000  Level Minneapolis Center
Mon 06:00:21 PM 43.8689 -100.0700 79° East 509 586 37,000  Level Minneapolis Center
Mon 06:01:23 PM 43.8967 -99.8794 79° East 508 585 37,000  Level Minneapolis Center
Mon 06:02:25 PM 43.9231 -99.6897 79° East 506 582 37,000  Level Minneapolis Center
Mon 06:03:27 PM 43.9550 -99.4600 79° East 508 585 37,000  Level Minneapolis Center
Mon 06:04:28 PM 43.9808 -99.2667 79° East 511 588 37,000  Level Minneapolis Center
Mon 06:05:30 PM 44.0069 -99.0739 79° East 512 589 37,000  Level Minneapolis Center
Mon 06:06:31 PM 44.0281 -98.9181 79° East 514 592 37,000  Level Minneapolis Center
Mon 06:07:33 PM 44.0606 -98.6767 79° East 516 594 37,000  Level Minneapolis Center
Mon 06:08:35 PM 44.0858 -98.4811 80° East 517 595 37,000  Level Minneapolis Center
Mon 06:09:37 PM 44.1158 -98.2492 80° East 511 588 37,000  Level Minneapolis Center
Mon 06:10:39 PM 44.1408 -98.0544 80° East 512 589 37,000  Level Minneapolis Center
Mon 06:11:40 PM 44.1661 -97.8592 80° East 514 592 37,000  Level Minneapolis Center
Mon 06:12:42 PM 44.1883 -97.6642 81° East 513 590 37,000  Level Minneapolis Center
Mon 06:13:44 PM 44.2117 -97.4675 81° East 514 592 37,000  Level Minneapolis Center
Mon 06:14:46 PM 44.2356 -97.2711 80° East 515 593 37,000  Level Minneapolis Center
Mon 06:15:48 PM 44.2578 -97.0744 81° East 516 594 37,000  Level Minneapolis Center
Mon 06:16:49 PM 44.2853 -96.8381 81° East 516 594 37,000  Level Minneapolis Center
Mon 06:17:51 PM 44.3086 -96.6414 81° East 514 592 37,000  Level Minneapolis Center
Mon 06:19:00 PM 44.3184 -96.4329 86° East  Level FlightAware Approximate
Mon 06:19:55 PM 44.3539 -96.2400 86° East 516 594 37,000  Level Minneapolis Center
Mon 06:20:57 PM 44.3756 -96.0369 81° East 518 596 36,100 -927 Descending Minneapolis Center
Mon 06:21:58 PM 44.3958 -95.8386 82° East 514 592 35,100 -976 Descending Minneapolis Center
Mon 06:23:00 PM 44.4169 -95.6417 81° East 512 589 34,100 -968 Descending Minneapolis Center
Mon 06:24:02 PM 44.4361 -95.4436 82° East 514 592 33,100 -1,694 Descending Minneapolis Center
Mon 06:25:04 PM 44.4553 -95.2417 82° East 521 600 30,600 -3,290 Descending Minneapolis Center
Mon 06:26:06 PM 44.4936 -95.0106 77° East 513 590 26,300 -3,726 Descending Minneapolis Center
Mon 06:27:08 PM 44.5394 -94.8278 71° East 504 580 22,900 -3,048 Descending Minneapolis Center
Mon 06:28:10 PM 44.5811 -94.6514 72° East 487 560 20,000 -2,855 Descending Minneapolis Center
Mon 06:29:12 PM 44.6192 -94.4803 73° East 459 528 17,000 -2,855 Descending Minneapolis Center
Mon 06:30:14 PM 44.6564 -94.3178 72° East 441 507 14,100 -2,780 Descending Minneapolis Center
Mon 06:31:15 PM 44.6925 -94.1592 72° East 428 493 11,300 -1,512 Descending Minneapolis Center
Mon 06:32:17 PM 44.7275 -94.0044 72° East 419 482 11,000 -145 Descending Minneapolis Center
Mon 06:33:19 PM 44.7683 -93.8192 73° East 412 474 11,000  Level Minneapolis Center
Mon 06:34:21 PM 44.8006 -93.6747 73° East 383 441 11,000  Level Minneapolis Center
Mon 06:35:23 PM 44.8278 -93.5514 73° East 319 367 11,000 -435 Level Minneapolis Center
Mon 06:36:25 PM 44.8506 -93.4472 73° East 278 320 10,100 -1,113 Descending Minneapolis Center
Mon 06:37:27 PM 44.8561 -93.3456 86° East 272 313 8,700 -1,016 Descending Minneapolis Center
Mon 06:38:29 PM 44.7900 -93.3117 160° South 259 298 8,000 -339 Descending Minneapolis Center
Mon 06:39:31 PM 44.7058 -93.3108 180° South 264 304 8,000 -97 Level Minneapolis Center
Mon 06:40:33 PM 44.6344 -93.3069 178° South 262 302 7,800 -829 Descending Minneapolis Center
Mon 06:41:34 PM 44.5853 -93.2519 141° Southeast 266 306 6,300 -1,073 Descending Minneapolis Center
Mon 06:42:36 PM 44.6286 -93.1956 43° Northeast 227 261 5,600 -1,065 Descending Minneapolis Center
Mon 06:43:38 PM 44.6917 -93.1911 North 198 228 4,100 -1,210 Descending Minneapolis Center
Mon 06:44:40 PM 44.7439 -93.2050 349° North 195 224 3,100 -968 Descending Minneapolis Center

Login

Don't have an account? Register now (free) for customized features, flight alerts, and more!